sensor_id;sensor_type;location;lat;lon;timestamp;pressure;altitude;pressure_sealevel;temperature;humidity
23176;BME280;19910;42.652;23.332;2022-09-24T00:00:54;94998.78;;;5.62;85.67
23176;BME280;19910;42.652;23.332;2022-09-24T00:03:23;95005.44;;;5.46;85.20
23176;BME280;19910;42.652;23.332;2022-09-24T00:05:51;94995.66;;;5.55;84.58
23176;BME280;19910;42.652;23.332;2022-09-24T00:08:19;94995.59;;;5.60;84.44
23176;BME280;19910;42.652;23.332;2022-09-24T00:10:47;95006.41;;;5.55;84.36
23176;BME280;19910;42.652;23.332;2022-09-24T00:13:16;95001.59;;;5.52;84.48
23176;BME280;19910;42.652;23.332;2022-09-24T00:15:45;94999.03;;;5.42;85.03
23176;BME280;19910;42.652;23.332;2022-09-24T00:18:13;95005.50;;;5.41;85.39
23176;BME280;19910;42.652;23.332;2022-09-24T00:20:41;94998.00;;;5.38;85.45
23176;BME280;19910;42.652;23.332;2022-09-24T00:23:09;95003.94;;;5.35;85.22
23176;BME280;19910;42.652;23.332;2022-09-24T00:25:39;94995.59;;;5.36;85.13
23176;BME280;19910;42.652;23.332;2022-09-24T00:28:26;94994.78;;;5.36;85.29
23176;BME280;19910;42.652;23.332;2022-09-24T00:30:53;95006.63;;;5.35;84.78
23176;BME280;19910;42.652;23.332;2022-09-24T00:33:21;94997.84;;;5.29;85.18
23176;BME280;19910;42.652;23.332;2022-09-24T00:35:48;95002.66;;;5.32;85.49
23176;BME280;19910;42.652;23.332;2022-09-24T00:38:16;95002.34;;;5.34;85.48
23176;BME280;19910;42.652;23.332;2022-09-24T00:40:43;95001.19;;;5.40;85.34
23176;BME280;19910;42.652;23.332;2022-09-24T00:43:21;94994.69;;;5.46;85.01
23176;BME280;19910;42.652;23.332;2022-09-24T00:45:49;94995.59;;;5.36;84.76
23176;BME280;19910;42.652;23.332;2022-09-24T00:48:17;94993.53;;;5.28;84.72
23176;BME280;19910;42.652;23.332;2022-09-24T00:50:45;94996.28;;;5.23;84.79
23176;BME280;19910;42.652;23.332;2022-09-24T00:53:15;94996.91;;;5.15;85.31
23176;BME280;19910;42.652;23.332;2022-09-24T00:55:48;94986.97;;;5.16;85.55
23176;BME280;19910;42.652;23.332;2022-09-24T00:58:19;94985.28;;;5.20;85.62
23176;BME280;19910;42.652;23.332;2022-09-24T01:00:51;94987.22;;;5.19;86.06
23176;BME280;19910;42.652;23.332;2022-09-24T01:03:22;94978.09;;;5.15;85.61
23176;BME280;19910;42.652;23.332;2022-09-24T01:05:50;94986.91;;;5.21;85.63
23176;BME280;19910;42.652;23.332;2022-09-24T01:08:19;94980.53;;;5.17;85.84
23176;BME280;19910;42.652;23.332;2022-09-24T01:11:00;94977.31;;;5.15;86.09
23176;BME280;19910;42.652;23.332;2022-09-24T01:13:36;94986.91;;;5.21;85.81
23176;BME280;19910;42.652;23.332;2022-09-24T01:16:12;94979.03;;;5.06;86.06
23176;BME280;19910;42.652;23.332;2022-09-24T01:18:50;94976.28;;;5.11;85.90
23176;BME280;19910;42.652;23.332;2022-09-24T01:21:26;94980.59;;;5.07;86.38
23176;BME280;19910;42.652;23.332;2022-09-24T01:24:25;94974.66;;;5.10;86.22
23176;BME280;19910;42.652;23.332;2022-09-24T01:27:00;94980.59;;;5.07;85.87
23176;BME280;19910;42.652;23.332;2022-09-24T01:29:36;94982.31;;;4.97;86.06
23176;BME280;19910;42.652;23.332;2022-09-24T01:32:10;94979.66;;;4.92;86.35
23176;BME280;19910;42.652;23.332;2022-09-24T01:34:43;94976.69;;;4.94;86.31
23176;BME280;19910;42.652;23.332;2022-09-24T01:37:14;94983.94;;;4.93;86.02
23176;BME280;19910;42.652;23.332;2022-09-24T01:39:43;94978.03;;;4.96;86.30
23176;BME280;19910;42.652;23.332;2022-09-24T01:42:13;94984.81;;;4.89;85.70
23176;BME280;19910;42.652;23.332;2022-09-24T01:44:42;94983.53;;;4.81;85.89
23176;BME280;19910;42.652;23.332;2022-09-24T01:47:13;94983.91;;;4.70;86.36
23176;BME280;19910;42.652;23.332;2022-09-24T01:49:42;94984.75;;;4.65;86.70
23176;BME280;19910;42.652;23.332;2022-09-24T01:52:15;94992.16;;;4.78;86.32
23176;BME280;19910;42.652;23.332;2022-09-24T01:54:46;94989.56;;;4.68;86.34
23176;BME280;19910;42.652;23.332;2022-09-24T01:57:19;94984.00;;;4.59;86.94
23176;BME280;19910;42.652;23.332;2022-09-24T01:59:53;94993.09;;;4.63;87.15
23176;BME280;19910;42.652;23.332;2022-09-24T02:02:27;94998.47;;;4.63;87.17
23176;BME280;19910;42.652;23.332;2022-09-24T02:04:58;94994.69;;;4.64;86.99
23176;BME280;19910;42.652;23.332;2022-09-24T02:07:33;94995.00;;;4.58;87.15
23176;BME280;19910;42.652;23.332;2022-09-24T02:10:00;95000.84;;;4.65;86.93
23176;BME280;19910;42.652;23.332;2022-09-24T02:12:31;95005.75;;;4.58;87.18
23176;BME280;19910;42.652;23.332;2022-09-24T02:15:04;95004.41;;;4.55;87.08
23176;BME280;19910;42.652;23.332;2022-09-24T02:17:35;95006.78;;;4.62;86.98
23176;BME280;19910;42.652;23.332;2022-09-24T02:20:08;95010.81;;;4.64;86.74
23176;BME280;19910;42.652;23.332;2022-09-24T02:22:38;95017.53;;;4.62;86.67
23176;BME280;19910;42.652;23.332;2022-09-24T02:25:09;95014.31;;;4.60;86.46
23176;BME280;19910;42.652;23.332;2022-09-24T02:27:39;95015.66;;;4.57;86.34
23176;BME280;19910;42.652;23.332;2022-09-24T02:30:09;95019.72;;;4.55;86.44
23176;BME280;19910;42.652;23.332;2022-09-24T02:32:39;95027.19;;;4.58;86.80
23176;BME280;19910;42.652;23.332;2022-09-24T02:35:10;95025.06;;;4.55;86.88
23176;BME280;19910;42.652;23.332;2022-09-24T02:37:37;95029.34;;;4.56;86.91
23176;BME280;19910;42.652;23.332;2022-09-24T02:40:07;95028.59;;;4.50;86.98
23176;BME280;19910;42.652;23.332;2022-09-24T02:42:35;95026.22;;;4.44;87.27
23176;BME280;19910;42.652;23.332;2022-09-24T02:45:03;95034.47;;;4.52;87.68
23176;BME280;19910;42.652;23.332;2022-09-24T02:47:31;95030.97;;;4.57;87.39
23176;BME280;19910;42.652;23.332;2022-09-24T02:49:58;95035.78;;;4.60;87.24
23176;BME280;19910;42.652;23.332;2022-09-24T02:52:25;95035.88;;;4.45;87.25
23176;BME280;19910;42.652;23.332;2022-09-24T02:54:52;95043.41;;;4.38;87.91
23176;BME280;19910;42.652;23.332;2022-09-24T02:57:19;95038.06;;;4.38;87.82
23176;BME280;19910;42.652;23.332;2022-09-24T02:59:46;95045.34;;;4.32;88.06
23176;BME280;19910;42.652;23.332;2022-09-24T03:02:13;95048.56;;;4.34;88.30
23176;BME280;19910;42.652;23.332;2022-09-24T03:04:41;95048.56;;;4.34;88.30
23176;BME280;19910;42.652;23.332;2022-09-24T03:07:08;95041.88;;;4.32;88.08
23176;BME280;19910;42.652;23.332;2022-09-24T03:09:35;95040.00;;;4.32;88.09
23176;BME280;19910;42.652;23.332;2022-09-24T03:12:03;95034.09;;;4.30;87.92
23176;BME280;19910;42.652;23.332;2022-09-24T03:14:30;95041.84;;;4.37;88.03
23176;BME280;19910;42.652;23.332;2022-09-24T03:16:56;95042.91;;;4.36;88.23
23176;BME280;19910;42.652;23.332;2022-09-24T03:19:23;95033.28;;;4.35;87.92
23176;BME280;19910;42.652;23.332;2022-09-24T03:21:52;95037.13;;;4.13;87.60
23176;BME280;19910;42.652;23.332;2022-09-24T03:24:18;95043.03;;;4.10;88.15
23176;BME280;19910;42.652;23.332;2022-09-24T03:26:45;95034.00;;;4.01;87.93
23176;BME280;19910;42.652;23.332;2022-09-24T03:29:12;95054.38;;;3.97;88.37
23176;BME280;19910;42.652;23.332;2022-09-24T03:31:40;95052.75;;;4.06;88.41
23176;BME280;19910;42.652;23.332;2022-09-24T03:34:05;95047.38;;;4.06;88.41
23176;BME280;19910;42.652;23.332;2022-09-24T03:36:32;95055.69;;;4.05;88.48
23176;BME280;19910;42.652;23.332;2022-09-24T03:39:00;95064.50;;;4.10;88.94
23176;BME280;19910;42.652;23.332;2022-09-24T03:41:27;95061.25;;;4.13;88.70
23176;BME280;19910;42.652;23.332;2022-09-24T03:43:54;95070.97;;;4.04;88.53
23176;BME280;19910;42.652;23.332;2022-09-24T03:46:22;95066.16;;;4.01;88.56
23176;BME280;19910;42.652;23.332;2022-09-24T03:48:55;95059.72;;;4.07;88.52
23176;BME280;19910;42.652;23.332;2022-09-24T03:51:24;95061.31;;;4.08;88.08
23176;BME280;19910;42.652;23.332;2022-09-24T03:53:51;95062.66;;;4.06;88.34
23176;BME280;19910;42.652;23.332;2022-09-24T03:56:19;95068.50;;;4.13;88.15
23176;BME280;19910;42.652;23.332;2022-09-24T03:58:46;95069.63;;;4.07;87.82
23176;BME280;19910;42.652;23.332;2022-09-24T04:01:13;95077.91;;;4.10;87.90
23176;BME280;19910;42.652;23.332;2022-09-24T04:03:46;95075.78;;;4.07;87.88
23176;BME280;19910;42.652;23.332;2022-09-24T04:06:13;95076.88;;;4.01;88.43
23176;BME280;19910;42.652;23.332;2022-09-24T04:08:40;95068.28;;;4.04;88.61
23176;BME280;19910;42.652;23.332;2022-09-24T04:11:06;95067.75;;;4.02;89.67
23176;BME280;19910;42.652;23.332;2022-09-24T04:13:35;95082.56;;;3.95;88.82
23176;BME280;19910;42.652;23.332;2022-09-24T04:16:02;95067.81;;;3.87;89.87
23176;BME280;19910;42.652;23.332;2022-09-24T04:18:29;95072.63;;;3.95;90.34
23176;BME280;19910;42.652;23.332;2022-09-24T04:20:57;95080.13;;;3.93;89.79
23176;BME280;19910;42.652;23.332;2022-09-24T04:23:24;95080.09;;;4.03;89.21
23176;BME280;19910;42.652;23.332;2022-09-24T04:25:51;95073.06;;;4.12;88.89
23176;BME280;19910;42.652;23.332;2022-09-24T04:28:18;95076.25;;;4.19;88.91
23176;BME280;19910;42.652;23.332;2022-09-24T04:30:47;95088.00;;;4.28;88.78
23176;BME280;19910;42.652;23.332;2022-09-24T04:33:14;95097.63;;;4.35;88.08
23176;BME280;19910;42.652;23.332;2022-09-24T04:35:41;95092.41;;;4.53;87.78
23176;BME280;19910;42.652;23.332;2022-09-24T04:38:08;95086.94;;;5.60;88.47
23176;BME280;19910;42.652;23.332;2022-09-24T04:40:36;95082.50;;;6.97;82.68
23176;BME280;19910;42.652;23.332;2022-09-24T04:43:04;95073.91;;;8.29;75.63
23176;BME280;19910;42.652;23.332;2022-09-24T04:45:31;95068.88;;;9.21;70.67
23176;BME280;19910;42.652;23.332;2022-09-24T04:48:00;95059.56;;;10.46;68.00
23176;BME280;19910;42.652;23.332;2022-09-24T04:50:28;95059.88;;;11.48;64.11
23176;BME280;19910;42.652;23.332;2022-09-24T04:52:58;95051.09;;;12.06;60.85
23176;BME280;19910;42.652;23.332;2022-09-24T04:55:25;95049.66;;;12.09;62.50
23176;BME280;19910;42.652;23.332;2022-09-24T04:57:54;95042.56;;;12.75;60.33
23176;BME280;19910;42.652;23.332;2022-09-24T05:00:21;95036.09;;;13.42;59.07
23176;BME280;19910;42.652;23.332;2022-09-24T05:02:55;95039.31;;;13.57;57.69
23176;BME280;19910;42.652;23.332;2022-09-24T05:05:24;95041.22;;;14.01;56.83
23176;BME280;19910;42.652;23.332;2022-09-24T05:07:51;95050.81;;;13.74;58.11
23176;BME280;19910;42.652;23.332;2022-09-24T05:10:21;95040.38;;;13.31;59.18
23176;BME280;19910;42.652;23.332;2022-09-24T05:12:48;95053.28;;;14.12;57.43
23176;BME280;19910;42.652;23.332;2022-09-24T05:15:15;95050.56;;;14.73;54.59
23176;BME280;19910;42.652;23.332;2022-09-24T05:17:43;95046.63;;;15.11;53.49
23176;BME280;19910;42.652;23.332;2022-09-24T05:20:11;95047.94;;;14.65;54.59
23176;BME280;19910;42.652;23.332;2022-09-24T05:22:41;95046.22;;;14.23;55.22
23176;BME280;19910;42.652;23.332;2022-09-24T05:25:08;95045.09;;;14.85;53.25
23176;BME280;19910;42.652;23.332;2022-09-24T05:27:35;95033.50;;;15.56;51.02
23176;BME280;19910;42.652;23.332;2022-09-24T05:30:01;95039.03;;;16.19;48.03
23176;BME280;19910;42.652;23.332;2022-09-24T05:32:30;95036.56;;;16.96;46.47
23176;BME280;19910;42.652;23.332;2022-09-24T05:35:00;95033.91;;;17.58;45.80
23176;BME280;19910;42.652;23.332;2022-09-24T05:37:27;95042.78;;;16.78;46.99
23176;BME280;19910;42.652;23.332;2022-09-24T05:39:55;95047.91;;;16.79;47.37
23176;BME280;19910;42.652;23.332;2022-09-24T05:42:22;95035.72;;;17.50;45.83
23176;BME280;19910;42.652;23.332;2022-09-24T05:44:49;95034.41;;;17.83;44.48
23176;BME280;19910;42.652;23.332;2022-09-24T05:47:16;95054.69;;;16.85;46.00
23176;BME280;19910;42.652;23.332;2022-09-24T05:49:42;95055.50;;;15.91;48.26
23176;BME280;19910;42.652;23.332;2022-09-24T05:52:09;95060.50;;;15.34;50.87
23176;BME280;19910;42.652;23.332;2022-09-24T05:54:36;95070.88;;;15.00;51.08
23176;BME280;19910;42.652;23.332;2022-09-24T05:57:04;95068.03;;;15.64;50.38
23176;BME280;19910;42.652;23.332;2022-09-24T05:59:32;95064.94;;;16.57;48.19
23176;BME280;19910;42.652;23.332;2022-09-24T06:01:59;95061.94;;;16.78;46.69
23176;BME280;19910;42.652;23.332;2022-09-24T06:04:26;95063.00;;;16.42;46.93
23176;BME280;19910;42.652;23.332;2022-09-24T06:06:53;95065.63;;;16.54;47.03
23176;BME280;19910;42.652;23.332;2022-09-24T06:09:20;95073.00;;;16.34;46.85
23176;BME280;19910;42.652;23.332;2022-09-24T06:11:47;95070.00;;;17.05;45.51
23176;BME280;19910;42.652;23.332;2022-09-24T06:14:16;95077.28;;;17.17;45.46
23176;BME280;19910;42.652;23.332;2022-09-24T06:16:44;95072.03;;;17.28;44.07
23176;BME280;19910;42.652;23.332;2022-09-24T06:19:10;95059.94;;;17.87;43.05
23176;BME280;19910;42.652;23.332;2022-09-24T06:21:37;95058.25;;;18.24;42.02
23176;BME280;19910;42.652;23.332;2022-09-24T06:24:04;95063.06;;;18.76;40.91
23176;BME280;19910;42.652;23.332;2022-09-24T06:26:31;95060.81;;;18.36;41.71
23176;BME280;19910;42.652;23.332;2022-09-24T06:28:58;95080.13;;;16.39;45.07
23176;BME280;19910;42.652;23.332;2022-09-24T06:31:26;95079.94;;;16.94;44.51
23176;BME280;19910;42.652;23.332;2022-09-24T06:33:53;95077.38;;;17.21;44.18
23176;BME280;19910;42.652;23.332;2022-09-24T06:36:20;95082.00;;;16.66;45.81
23176;BME280;19910;42.652;23.332;2022-09-24T06:38:49;95072.03;;;17.28;43.72
23176;BME280;19910;42.652;23.332;2022-09-24T06:41:16;95071.06;;;18.39;41.84
23176;BME280;19910;42.652;23.332;2022-09-24T06:43:43;95080.69;;;17.30;43.45
23176;BME280;19910;42.652;23.332;2022-09-24T06:46:10;95078.94;;;17.76;42.82
23176;BME280;19910;42.652;23.332;2022-09-24T06:48:39;95078.09;;;17.18;43.14
23176;BME280;19910;42.652;23.332;2022-09-24T06:51:07;95088.75;;;15.66;46.07
23176;BME280;19910;42.652;23.332;2022-09-24T06:53:34;95076.22;;;17.41;43.78
23176;BME280;19910;42.652;23.332;2022-09-24T06:56:01;95080.06;;;17.01;43.89
23176;BME280;19910;42.652;23.332;2022-09-24T06:58:29;95079.94;;;16.31;44.84
23176;BME280;19910;42.652;23.332;2022-09-24T07:00:57;95081.72;;;15.52;46.51
23176;BME280;19910;42.652;23.332;2022-09-24T07:03:26;95073.47;;;15.92;46.20
23176;BME280;19910;42.652;23.332;2022-09-24T07:05:55;95083.72;;;14.87;48.77
23176;BME280;19910;42.652;23.332;2022-09-24T07:08:22;95087.16;;;14.72;49.01
23176;BME280;19910;42.652;23.332;2022-09-24T07:10:48;95102.69;;;13.78;51.74
23176;BME280;19910;42.652;23.332;2022-09-24T07:13:17;95090.38;;;14.05;51.58
23176;BME280;19910;42.652;23.332;2022-09-24T07:15:45;95099.28;;;13.81;51.42
23176;BME280;19910;42.652;23.332;2022-09-24T07:18:12;95092.97;;;13.89;50.80
23176;BME280;19910;42.652;23.332;2022-09-24T07:20:40;95101.03;;;13.11;53.16
23176;BME280;19910;42.652;23.332;2022-09-24T07:23:10;95103.22;;;12.67;55.06
23176;BME280;19910;42.652;23.332;2022-09-24T07:25:37;95106.03;;;12.50;55.27
23176;BME280;19910;42.652;23.332;2022-09-24T07:28:07;95097.41;;;12.77;55.09
23176;BME280;19910;42.652;23.332;2022-09-24T07:30:35;95097.09;;;12.12;56.20
23176;BME280;19910;42.652;23.332;2022-09-24T07:33:02;95099.97;;;12.06;56.77
23176;BME280;19910;42.652;23.332;2022-09-24T07:35:29;95098.09;;;11.98;57.57
23176;BME280;19910;42.652;23.332;2022-09-24T07:37:57;95100.88;;;12.28;57.76
23176;BME280;19910;42.652;23.332;2022-09-24T07:40:26;95098.44;;;12.35;58.25
23176;BME280;19910;42.652;23.332;2022-09-24T07:42:53;95089.09;;;12.44;55.93
23176;BME280;19910;42.652;23.332;2022-09-24T07:45:21;95091.59;;;12.58;55.73
23176;BME280;19910;42.652;23.332;2022-09-24T07:47:55;95086.91;;;12.67;55.65
23176;BME280;19910;42.652;23.332;2022-09-24T07:50:23;95090.13;;;13.11;53.69
23176;BME280;19910;42.652;23.332;2022-09-24T07:52:49;95089.00;;;12.62;54.68
23176;BME280;19910;42.652;23.332;2022-09-24T07:55:16;95088.53;;;13.10;54.99
23176;BME280;19910;42.652;23.332;2022-09-24T07:57:46;95084.34;;;12.92;54.71
23176;BME280;19910;42.652;23.332;2022-09-24T08:00:14;95084.38;;;12.62;55.77
23176;BME280;19910;42.652;23.332;2022-09-24T08:02:42;95083.44;;;12.58;56.18
23176;BME280;19910;42.652;23.332;2022-09-24T08:05:09;95087.31;;;12.57;56.36
23176;BME280;19910;42.652;23.332;2022-09-24T08:07:37;95075.69;;;12.98;55.09
23176;BME280;19910;42.652;23.332;2022-09-24T08:10:04;95074.66;;;13.77;53.53
23176;BME280;19910;42.652;23.332;2022-09-24T08:12:31;95078.56;;;13.56;54.20
23176;BME280;19910;42.652;23.332;2022-09-24T08:14:59;95074.38;;;13.25;55.03
23176;BME280;19910;42.652;23.332;2022-09-24T08:17:26;95074.19;;;13.42;53.81
23176;BME280;19910;42.652;23.332;2022-09-24T08:19:53;95072.50;;;13.17;54.76
23176;BME280;19910;42.652;23.332;2022-09-24T08:22:21;95087.22;;;13.16;55.01
23176;BME280;19910;42.652;23.332;2022-09-24T08:24:48;95079.41;;;13.35;53.91
23176;BME280;19910;42.652;23.332;2022-09-24T08:27:16;95078.78;;;13.50;53.50
23176;BME280;19910;42.652;23.332;2022-09-24T08:29:44;95071.78;;;14.07;53.04
23176;BME280;19910;42.652;23.332;2022-09-24T08:32:12;95071.31;;;14.05;52.42
23176;BME280;19910;42.652;23.332;2022-09-24T08:34:39;95075.50;;;14.02;51.94
23176;BME280;19910;42.652;23.332;2022-09-24T08:37:06;95068.38;;;14.22;52.42
23176;BME280;19910;42.652;23.332;2022-09-24T08:39:33;95070.28;;;14.21;52.63
23176;BME280;19910;42.652;23.332;2022-09-24T08:42:01;95073.38;;;14.32;51.26
23176;BME280;19910;42.652;23.332;2022-09-24T08:44:30;95065.34;;;14.60;50.77
23176;BME280;19910;42.652;23.332;2022-09-24T08:47:34;95058.41;;;15.27;49.10
23176;BME280;19910;42.652;23.332;2022-09-24T08:50:07;95056.69;;;15.50;48.15
23176;BME280;19910;42.652;23.332;2022-09-24T08:52:59;95053.81;;;15.31;48.44
23176;BME280;19910;42.652;23.332;2022-09-24T08:55:33;95057.22;;;15.40;48.23
23176;BME280;19910;42.652;23.332;2022-09-24T08:58:19;95046.75;;;15.42;48.46
23176;BME280;19910;42.652;23.332;2022-09-24T09:00:53;95043.31;;;15.89;48.28
23176;BME280;19910;42.652;23.332;2022-09-24T09:03:30;95046.34;;;15.84;47.96
23176;BME280;19910;42.652;23.332;2022-09-24T09:06:04;95041.91;;;15.79;48.63
23176;BME280;19910;42.652;23.332;2022-09-24T09:08:40;95032.94;;;15.23;49.29
23176;BME280;19910;42.652;23.332;2022-09-24T09:11:13;95040.94;;;15.04;49.38
23176;BME280;19910;42.652;23.332;2022-09-24T09:13:43;95042.50;;;15.17;48.41
23176;BME280;19910;42.652;23.332;2022-09-24T09:16:21;95039.78;;;15.17;48.37
23176;BME280;19910;42.652;23.332;2022-09-24T09:18:53;95037.22;;;14.96;48.72
23176;BME280;19910;42.652;23.332;2022-09-24T09:21:27;95033.97;;;15.46;49.49
23176;BME280;19910;42.652;23.332;2022-09-24T09:23:58;95027.19;;;15.68;48.56
23176;BME280;19910;42.652;23.332;2022-09-24T09:26:26;95031.22;;;15.74;48.23
23176;BME280;19910;42.652;23.332;2022-09-24T09:28:57;95019.13;;;15.59;47.70
23176;BME280;19910;42.652;23.332;2022-09-24T09:31:35;95020.38;;;15.34;47.45
23176;BME280;19910;42.652;23.332;2022-09-24T09:34:29;95018.25;;;15.27;48.30
23176;BME280;19910;42.652;23.332;2022-09-24T09:37:09;95023.03;;;15.31;48.89
23176;BME280;19910;42.652;23.332;2022-09-24T09:39:44;95016.09;;;15.21;48.68
23176;BME280;19910;42.652;23.332;2022-09-24T09:42:33;95008.00;;;15.52;47.34
23176;BME280;19910;42.652;23.332;2022-09-24T09:45:03;95006.75;;;15.78;48.04
23176;BME280;19910;42.652;23.332;2022-09-24T09:47:39;95004.22;;;15.85;46.10
23176;BME280;19910;42.652;23.332;2022-09-24T09:50:24;94999.94;;;15.72;46.71
23176;BME280;19910;42.652;23.332;2022-09-24T09:52:51;95002.59;;;15.99;45.81
23176;BME280;19910;42.652;23.332;2022-09-24T09:55:23;94994.94;;;16.05;45.04
23176;BME280;19910;42.652;23.332;2022-09-24T09:57:51;94997.06;;;15.96;46.19
23176;BME280;19910;42.652;23.332;2022-09-24T10:00:26;94986.88;;;16.44;45.46
23176;BME280;19910;42.652;23.332;2022-09-24T10:02:54;94977.03;;;16.74;45.26
23176;BME280;19910;42.652;23.332;2022-09-24T10:05:22;94967.81;;;16.82;43.37
23176;BME280;19910;42.652;23.332;2022-09-24T10:07:53;94974.56;;;16.69;45.99
23176;BME280;19910;42.652;23.332;2022-09-24T10:10:21;94972.16;;;16.32;44.82
23176;BME280;19910;42.652;23.332;2022-09-24T10:12:51;94974.91;;;16.32;45.06
23176;BME280;19910;42.652;23.332;2022-09-24T10:15:19;94971.28;;;16.28;44.83
23176;BME280;19910;42.652;23.332;2022-09-24T10:17:50;94964.28;;;16.62;44.22
23176;BME280;19910;42.652;23.332;2022-09-24T10:20:22;94967.66;;;16.40;43.72
23176;BME280;19910;42.652;23.332;2022-09-24T10:22:54;94962.78;;;16.84;43.85
23176;BME280;19910;42.652;23.332;2022-09-24T10:25:22;94962.09;;;17.07;44.16
23176;BME280;19910;42.652;23.332;2022-09-24T10:27:52;94943.31;;;17.47;41.54
23176;BME280;19910;42.652;23.332;2022-09-24T10:30:20;94943.97;;;17.83;41.36
23176;BME280;19910;42.652;23.332;2022-09-24T10:32:59;94940.19;;;17.91;41.76
23176;BME280;19910;42.652;23.332;2022-09-24T10:35:29;94935.84;;;18.13;40.47
23176;BME280;19910;42.652;23.332;2022-09-24T10:37:59;94939.31;;;18.09;39.71
23176;BME280;19910;42.652;23.332;2022-09-24T10:40:28;94934.53;;;18.03;40.68
23176;BME280;19910;42.652;23.332;2022-09-24T10:42:58;94946.28;;;17.81;41.00
23176;BME280;19910;42.652;23.332;2022-09-24T10:45:35;94938.09;;;18.07;40.94
23176;BME280;19910;42.652;23.332;2022-09-24T10:48:10;94934.75;;;18.43;40.24
23176;BME280;19910;42.652;23.332;2022-09-24T10:50:45;94935.50;;;18.40;40.06
23176;BME280;19910;42.652;23.332;2022-09-24T10:53:25;94930.38;;;18.13;40.18
23176;BME280;19910;42.652;23.332;2022-09-24T10:55:58;94925.41;;;18.48;38.93
23176;BME280;19910;42.652;23.332;2022-09-24T11:01:36;94922.69;;;18.78;38.68
23176;BME280;19910;42.652;23.332;2022-09-24T11:04:21;94926.75;;;18.88;39.15
23176;BME280;19910;42.652;23.332;2022-09-24T11:07:21;94934.13;;;19.13;38.56
23176;BME280;19910;42.652;23.332;2022-09-24T11:09:57;94921.72;;;18.93;37.75
23176;BME280;19910;42.652;23.332;2022-09-24T11:12:34;94927.09;;;18.30;38.13
23176;BME280;19910;42.652;23.332;2022-09-24T11:15:23;94914.53;;;18.55;38.59
23176;BME280;19910;42.652;23.332;2022-09-24T11:18:07;94919.47;;;18.69;36.88
23176;BME280;19910;42.652;23.332;2022-09-24T11:20:36;94906.53;;;19.03;34.85
23176;BME280;19910;42.652;23.332;2022-09-24T11:23:32;94899.03;;;18.66;34.24
23176;BME280;19910;42.652;23.332;2022-09-24T11:26:16;94896.16;;;18.89;34.62
23176;BME280;19910;42.652;23.332;2022-09-24T11:29:04;94889.53;;;19.24;34.69
23176;BME280;19910;42.652;23.332;2022-09-24T11:31:39;94891.47;;;19.60;34.15
23176;BME280;19910;42.652;23.332;2022-09-24T11:34:28;94883.84;;;18.76;33.94
23176;BME280;19910;42.652;23.332;2022-09-24T11:37:15;94891.28;;;18.75;32.98
23176;BME280;19910;42.652;23.332;2022-09-24T11:39:59;94872.22;;;18.86;34.28
23176;BME280;19910;42.652;23.332;2022-09-24T11:42:44;94881.63;;;18.85;33.14
23176;BME280;19910;42.652;23.332;2022-09-24T11:45:31;94884.69;;;18.80;33.66
23176;BME280;19910;42.652;23.332;2022-09-24T11:48:18;94869.63;;;19.00;34.32
23176;BME280;19910;42.652;23.332;2022-09-24T11:50:54;94869.81;;;19.18;33.69
23176;BME280;19910;42.652;23.332;2022-09-24T11:53:28;94872.97;;;19.54;33.64
23176;BME280;19910;42.652;23.332;2022-09-24T11:56:01;94871.78;;;19.51;33.16
23176;BME280;19910;42.652;23.332;2022-09-24T11:58:32;94866.41;;;19.65;32.74
23176;BME280;19910;42.652;23.332;2022-09-24T12:01:04;94868.34;;;19.28;32.78
23176;BME280;19910;42.652;23.332;2022-09-24T12:03:42;94865.22;;;19.29;33.31
23176;BME280;19910;42.652;23.332;2022-09-24T12:06:12;94859.81;;;19.36;32.86
23176;BME280;19910;42.652;23.332;2022-09-24T12:08:45;94861.41;;;19.37;32.71
23176;BME280;19910;42.652;23.332;2022-09-24T12:11:21;94856.00;;;19.48;32.55
23176;BME280;19910;42.652;23.332;2022-09-24T12:13:55;94854.28;;;19.73;32.76
23176;BME280;19910;42.652;23.332;2022-09-24T12:16:26;94842.28;;;19.96;34.72
23176;BME280;19910;42.652;23.332;2022-09-24T12:18:55;94855.97;;;20.36;34.09
23176;BME280;19910;42.652;23.332;2022-09-24T12:21:31;94861.75;;;20.28;33.72
23176;BME280;19910;42.652;23.332;2022-09-24T12:24:03;94857.38;;;20.23;33.03
23176;BME280;19910;42.652;23.332;2022-09-24T12:26:36;94856.38;;;20.42;34.71
23176;BME280;19910;42.652;23.332;2022-09-24T12:29:26;94853.66;;;20.52;32.71
23176;BME280;19910;42.652;23.332;2022-09-24T12:32:18;94859.22;;;20.60;33.90
23176;BME280;19910;42.652;23.332;2022-09-24T12:35:09;94867.16;;;20.79;33.08
23176;BME280;19910;42.652;23.332;2022-09-24T12:37:39;94861.81;;;20.35;31.43
23176;BME280;19910;42.652;23.332;2022-09-24T12:40:27;94856.00;;;20.47;31.18
23176;BME280;19910;42.652;23.332;2022-09-24T12:43:08;94861.53;;;20.47;32.76
23176;BME280;19910;42.652;23.332;2022-09-24T12:45:39;94861.31;;;20.18;31.82
23176;BME280;19910;42.652;23.332;2022-09-24T12:48:13;94859.72;;;20.17;32.73
23176;BME280;19910;42.652;23.332;2022-09-24T12:50:41;94855.16;;;20.39;32.70
23176;BME280;19910;42.652;23.332;2022-09-24T12:53:19;94850.47;;;20.36;32.54
23176;BME280;19910;42.652;23.332;2022-09-24T12:55:49;94851.03;;;20.12;31.93
23176;BME280;19910;42.652;23.332;2022-09-24T12:58:27;94845.28;;;19.76;32.32
23176;BME280;19910;42.652;23.332;2022-09-24T13:01:10;94843.63;;;19.68;32.54
23176;BME280;19910;42.652;23.332;2022-09-24T13:03:39;94846.97;;;19.92;31.79
23176;BME280;19910;42.652;23.332;2022-09-24T13:06:21;94822.59;;;19.90;32.73
23176;BME280;19910;42.652;23.332;2022-09-24T13:08:48;94839.38;;;20.29;32.76
23176;BME280;19910;42.652;23.332;2022-09-24T13:11:27;94837.69;;;20.14;32.37
23176;BME280;19910;42.652;23.332;2022-09-24T13:14:18;94841.47;;;19.92;32.19
23176;BME280;19910;42.652;23.332;2022-09-24T13:16:47;94839.19;;;20.01;32.84